Dallas, Texas
Traffic Map
Current Weather Conditions
Dallas, Texas
Clear
Clear
19°
Feels Like: 19°
Wind Chill: 19° Ceiling: Unl
Heat Index: 19° Visibility: 10mi
Dew Point: Wind: 8mph
Humidity: 32% Direction: 40° (NE)
Pressure: 30.29in Gusts: 0mph
Raw Report DataKDAL 122353Z 04007KT 10SM CLR 19/02 A3029 RMK AO2 SLP253 T01890017 10211 20189 53009
Traffic Incident Summary
Active as of:
Severity:
Category:
InformationThere was an issue retrieving the traffic information for this location. Please try a different location or try again shortly.
Advertisements
Track Severe Weather on mobile